sensor_id;sensor_type;location;lat;lon;timestamp;P1;P2;P0
65556;PMS3003;52200;53.490;14.376;2023-05-25T00:00:50;19.00;14.00;7.50
65556;PMS3003;52200;53.490;14.376;2023-05-25T00:03:16;15.50;12.00;7.00
65556;PMS3003;52200;53.490;14.376;2023-05-25T00:05:41;18.00;13.50;8.00
65556;PMS3003;52200;53.490;14.376;2023-05-25T00:08:07;20.50;16.75;7.75
65556;PMS3003;52200;53.490;14.376;2023-05-25T00:10:32;26.25;20.50;11.00
65556;PMS3003;52200;53.490;14.376;2023-05-25T00:12:57;21.50;17.00;9.00
65556;PMS3003;52200;53.490;14.376;2023-05-25T00:15:23;22.75;16.25;9.25
65556;PMS3003;52200;53.490;14.376;2023-05-25T00:17:48;18.00;13.50;9.00
65556;PMS3003;52200;53.490;14.376;2023-05-25T00:20:14;21.25;16.25;10.00
65556;PMS3003;52200;53.490;14.376;2023-05-25T00:22:41;20.80;15.60;8.00
65556;PMS3003;52200;53.490;14.376;2023-05-25T00:25:09;21.40;15.80;8.80
65556;PMS3003;52200;53.490;14.376;2023-05-25T00:27:35;18.60;14.00;8.80
65556;PMS3003;52200;53.490;14.376;2023-05-25T00:30:00;18.00;15.00;7.50
65556;PMS3003;52200;53.490;14.376;2023-05-25T00:32:26;20.00;15.00;8.00
65556;PMS3003;52200;53.490;14.376;2023-05-25T00:34:52;18.75;13.00;7.25
65556;PMS3003;52200;53.490;14.376;2023-05-25T00:37:18;16.00;12.80;6.20
65556;PMS3003;52200;53.490;14.376;2023-05-25T00:39:44;17.75;12.50;7.50
65556;PMS3003;52200;53.490;14.376;2023-05-25T00:42:09;16.50;10.00;6.75
65556;PMS3003;52200;53.490;14.376;2023-05-25T00:44:35;18.75;15.50;8.00
65556;PMS3003;52200;53.490;14.376;2023-05-25T00:47:00;16.50;10.25;7.00
65556;PMS3003;52200;53.490;14.376;2023-05-25T00:49:28;17.00;12.80;6.40
65556;PMS3003;52200;53.490;14.376;2023-05-25T00:51:56;17.80;13.20;7.00
65556;PMS3003;52200;53.490;14.376;2023-05-25T00:54:22;18.60;12.00;5.40
65556;PMS3003;52200;53.490;14.376;2023-05-25T00:56:52;15.80;9.80;6.00
65556;PMS3003;52200;53.490;14.376;2023-05-25T00:59:32;16.00;11.80;6.40
65556;PMS3003;52200;53.490;14.376;2023-05-25T01:02:03;15.80;11.00;6.80
65556;PMS3003;52200;53.490;14.376;2023-05-25T01:04:31;17.00;13.00;6.00
65556;PMS3003;52200;53.490;14.376;2023-05-25T01:06:59;15.60;10.80;5.80
65556;PMS3003;52200;53.490;14.376;2023-05-25T01:09:28;17.80;9.60;5.80
65556;PMS3003;52200;53.490;14.376;2023-05-25T01:11:58;15.80;11.00;5.40
65556;PMS3003;52200;53.490;14.376;2023-05-25T01:14:26;14.00;9.80;5.40
65556;PMS3003;52200;53.490;14.376;2023-05-25T01:16:51;13.50;9.00;6.00
65556;PMS3003;52200;53.490;14.376;2023-05-25T01:19:19;16.20;8.80;6.00
65556;PMS3003;52200;53.490;14.376;2023-05-25T01:21:49;16.20;10.80;6.60
65556;PMS3003;52200;53.490;14.376;2023-05-25T01:29:25;15.40;8.40;5.80
65556;PMS3003;52200;53.490;14.376;2023-05-25T01:31:54;13.40;8.60;5.60
65556;PMS3003;52200;53.490;14.376;2023-05-25T01:34:22;14.60;11.00;5.60
65556;PMS3003;52200;53.490;14.376;2023-05-25T01:36:49;14.60;9.80;5.60
65556;PMS3003;52200;53.490;14.376;2023-05-25T01:39:15;15.40;9.80;6.00
65556;PMS3003;52200;53.490;14.376;2023-05-25T01:41:40;16.25;11.50;5.00
65556;PMS3003;52200;53.490;14.376;2023-05-25T01:44:06;12.50;7.75;5.75
65556;PMS3003;52200;53.490;14.376;2023-05-25T01:49:08;16.20;11.00;6.00
65556;PMS3003;52200;53.490;14.376;2023-05-25T01:51:50;16.80;11.00;5.40
65556;PMS3003;52200;53.490;14.376;2023-05-25T01:54:25;16.80;8.20;5.40
65556;PMS3003;52200;53.490;14.376;2023-05-25T01:57:13;14.80;9.00;5.40
65556;PMS3003;52200;53.490;14.376;2023-05-25T01:59:42;14.60;9.00;4.80
65556;PMS3003;52200;53.490;14.376;2023-05-25T02:02:11;16.80;12.40;5.00
65556;PMS3003;52200;53.490;14.376;2023-05-25T02:04:39;14.40;7.80;5.40
65556;PMS3003;52200;53.490;14.376;2023-05-25T02:07:06;13.00;9.00;5.80
65556;PMS3003;52200;53.490;14.376;2023-05-25T02:09:31;12.75;9.00;5.25
65556;PMS3003;52200;53.490;14.376;2023-05-25T02:11:57;14.50;9.50;5.00
65556;PMS3003;52200;53.490;14.376;2023-05-25T02:14:22;14.25;9.25;5.50
65556;PMS3003;52200;53.490;14.376;2023-05-25T02:16:47;14.75;10.25;5.75
65556;PMS3003;52200;53.490;14.376;2023-05-25T02:19:13;15.00;10.00;6.00
65556;PMS3003;52200;53.490;14.376;2023-05-25T02:21:39;16.75;11.50;5.75
65556;PMS3003;52200;53.490;14.376;2023-05-25T02:24:08;14.40;9.00;5.00
65556;PMS3003;52200;53.490;14.376;2023-05-25T02:26:34;14.60;10.20;6.20
65556;PMS3003;52200;53.490;14.376;2023-05-25T02:29:01;16.20;8.40;5.20
65556;PMS3003;52200;53.490;14.376;2023-05-25T02:31:27;17.40;10.80;6.00
65556;PMS3003;52200;53.490;14.376;2023-05-25T02:33:52;14.50;10.00;5.00
65556;PMS3003;52200;53.490;14.376;2023-05-25T02:36:18;16.75;9.25;5.00
65556;PMS3003;52200;53.490;14.376;2023-05-25T02:38:43;15.25;10.75;5.75
65556;PMS3003;52200;53.490;14.376;2023-05-25T02:41:11;18.20;11.40;5.60
65556;PMS3003;52200;53.490;14.376;2023-05-25T02:43:36;14.50;8.00;5.00
65556;PMS3003;52200;53.490;14.376;2023-05-25T02:46:02;13.00;9.20;5.00
65556;PMS3003;52200;53.490;14.376;2023-05-25T02:48:28;15.50;9.75;5.00
65556;PMS3003;52200;53.490;14.376;2023-05-25T02:50:53;15.25;10.75;5.00
65556;PMS3003;52200;53.490;14.376;2023-05-25T02:53:18;14.00;10.50;5.00
65556;PMS3003;52200;53.490;14.376;2023-05-25T02:55:44;13.25;10.00;6.00
65556;PMS3003;52200;53.490;14.376;2023-05-25T02:58:09;14.50;9.00;5.00
65556;PMS3003;52200;53.490;14.376;2023-05-25T03:00:35;15.25;11.25;5.00
65556;PMS3003;52200;53.490;14.376;2023-05-25T03:03:01;13.40;7.80;4.00
65556;PMS3003;52200;53.490;14.376;2023-05-25T03:05:27;15.00;11.25;6.00
65556;PMS3003;52200;53.490;14.376;2023-05-25T03:07:52;12.75;8.25;4.50
65556;PMS3003;52200;53.490;14.376;2023-05-25T03:10:18;16.25;11.00;5.00
65556;PMS3003;52200;53.490;14.376;2023-05-25T03:12:43;14.25;10.75;5.00
65556;PMS3003;52200;53.490;14.376;2023-05-25T03:15:09;14.00;8.25;6.00
65556;PMS3003;52200;53.490;14.376;2023-05-25T03:17:37;16.60;11.60;5.00
65556;PMS3003;52200;53.490;14.376;2023-05-25T03:20:02;14.50;10.25;5.00
65556;PMS3003;52200;53.490;14.376;2023-05-25T03:22:28;15.20;11.20;5.80
65556;PMS3003;52200;53.490;14.376;2023-05-25T03:24:54;14.25;10.25;5.25
65556;PMS3003;52200;53.490;14.376;2023-05-25T03:27:19;14.75;9.00;5.00
65556;PMS3003;52200;53.490;14.376;2023-05-25T03:29:47;14.00;7.75;5.25
65556;PMS3003;52200;53.490;14.376;2023-05-25T03:32:14;12.60;9.00;5.60
65556;PMS3003;52200;53.490;14.376;2023-05-25T03:34:39;14.75;10.50;5.75
65556;PMS3003;52200;53.490;14.376;2023-05-25T03:37:04;14.50;11.00;5.00
65556;PMS3003;52200;53.490;14.376;2023-05-25T03:39:30;14.00;9.75;5.25
65556;PMS3003;52200;53.490;14.376;2023-05-25T03:41:55;14.00;9.00;5.00
65556;PMS3003;52200;53.490;14.376;2023-05-25T03:44:22;13.60;8.80;4.80
65556;PMS3003;52200;53.490;14.376;2023-05-25T03:46:47;12.00;7.25;5.00
65556;PMS3003;52200;53.490;14.376;2023-05-25T03:49:13;17.50;10.75;6.25
65556;PMS3003;52200;53.490;14.376;2023-05-25T03:51:42;13.50;10.00;6.00
65556;PMS3003;52200;53.490;14.376;2023-05-25T03:54:08;13.60;9.00;4.80
65556;PMS3003;52200;53.490;14.376;2023-05-25T03:56:34;19.00;12.25;6.00
65556;PMS3003;52200;53.490;14.376;2023-05-25T03:59:00;13.00;9.40;4.80
65556;PMS3003;52200;53.490;14.376;2023-05-25T04:01:25;12.75;9.75;5.00
65556;PMS3003;52200;53.490;14.376;2023-05-25T04:03:51;13.00;9.00;5.00
65556;PMS3003;52200;53.490;14.376;2023-05-25T04:06:19;14.20;10.60;5.00
65556;PMS3003;52200;53.490;14.376;2023-05-25T04:08:45;14.25;10.25;5.00
65556;PMS3003;52200;53.490;14.376;2023-05-25T04:11:11;15.40;11.00;5.00
65556;PMS3003;52200;53.490;14.376;2023-05-25T04:13:37;16.25;12.00;5.00
65556;PMS3003;52200;53.490;14.376;2023-05-25T04:16:04;14.40;9.00;5.20
65556;PMS3003;52200;53.490;14.376;2023-05-25T04:18:30;13.40;10.40;5.00
65556;PMS3003;52200;53.490;14.376;2023-05-25T04:20:56;16.25;11.75;6.00
65556;PMS3003;52200;53.490;14.376;2023-05-25T04:23:21;17.75;12.00;5.75
65556;PMS3003;52200;53.490;14.376;2023-05-25T04:25:47;13.25;9.25;5.75
65556;PMS3003;52200;53.490;14.376;2023-05-25T04:28:15;14.00;10.20;5.40
65556;PMS3003;52200;53.490;14.376;2023-05-25T04:30:40;13.00;9.00;5.00
65556;PMS3003;52200;53.490;14.376;2023-05-25T04:33:06;14.00;8.00;4.25
65556;PMS3003;52200;53.490;14.376;2023-05-25T04:35:31;12.00;7.00;5.25
65556;PMS3003;52200;53.490;14.376;2023-05-25T04:37:56;12.00;8.00;4.75
65556;PMS3003;52200;53.490;14.376;2023-05-25T04:40:24;15.40;8.20;4.40
65556;PMS3003;52200;53.490;14.376;2023-05-25T04:42:51;13.40;8.00;4.00
65556;PMS3003;52200;53.490;14.376;2023-05-25T04:45:17;12.40;8.00;5.00
65556;PMS3003;52200;53.490;14.376;2023-05-25T04:47:45;13.40;8.60;4.80
65556;PMS3003;52200;53.490;14.376;2023-05-25T04:50:11;13.40;9.00;5.00
65556;PMS3003;52200;53.490;14.376;2023-05-25T04:52:36;12.00;7.75;4.00
65556;PMS3003;52200;53.490;14.376;2023-05-25T04:55:02;14.75;8.25;5.00
65556;PMS3003;52200;53.490;14.376;2023-05-25T04:57:28;10.50;6.25;4.00
65556;PMS3003;52200;53.490;14.376;2023-05-25T04:59:54;15.20;10.00;4.00
65556;PMS3003;52200;53.490;14.376;2023-05-25T05:02:20;11.00;7.25;4.00
65556;PMS3003;52200;53.490;14.376;2023-05-25T05:04:45;11.75;7.50;3.00
65556;PMS3003;52200;53.490;14.376;2023-05-25T05:07:11;12.00;8.00;4.00
65556;PMS3003;52200;53.490;14.376;2023-05-25T05:09:36;12.25;8.00;5.00
65556;PMS3003;52200;53.490;14.376;2023-05-25T05:12:02;10.75;7.00;3.75
65556;PMS3003;52200;53.490;14.376;2023-05-25T05:14:28;11.00;7.75;4.50
65556;PMS3003;52200;53.490;14.376;2023-05-25T05:16:53;11.40;8.00;4.00
65556;PMS3003;52200;53.490;14.376;2023-05-25T05:19:19;10.75;7.00;4.00
65556;PMS3003;52200;53.490;14.376;2023-05-25T05:21:44;12.25;7.25;4.25
65556;PMS3003;52200;53.490;14.376;2023-05-25T05:24:10;14.25;9.25;4.50
65556;PMS3003;52200;53.490;14.376;2023-05-25T05:26:37;12.00;7.75;5.00
65556;PMS3003;52200;53.490;14.376;2023-05-25T05:29:03;16.60;10.00;4.80
65556;PMS3003;52200;53.490;14.376;2023-05-25T05:31:29;13.50;7.50;3.75
65556;PMS3003;52200;53.490;14.376;2023-05-25T05:33:55;11.80;7.60;4.20
65556;PMS3003;52200;53.490;14.376;2023-05-25T05:36:21;12.50;7.75;4.75
65556;PMS3003;52200;53.490;14.376;2023-05-25T05:38:47;12.50;8.00;4.75
65556;PMS3003;52200;53.490;14.376;2023-05-25T05:41:12;11.50;8.00;5.00
65556;PMS3003;52200;53.490;14.376;2023-05-25T05:43:39;11.40;7.20;4.60
65556;PMS3003;52200;53.490;14.376;2023-05-25T05:46:06;11.60;7.60;4.00
65556;PMS3003;52200;53.490;14.376;2023-05-25T05:48:33;12.80;7.80;4.20
65556;PMS3003;52200;53.490;14.376;2023-05-25T05:50:58;12.75;8.75;5.75
65556;PMS3003;52200;53.490;14.376;2023-05-25T05:53:24;11.75;7.00;4.00
65556;PMS3003;52200;53.490;14.376;2023-05-25T05:55:49;14.50;8.50;4.75
65556;PMS3003;52200;53.490;14.376;2023-05-25T05:58:18;12.40;7.60;4.00
65556;PMS3003;52200;53.490;14.376;2023-05-25T06:00:43;11.00;7.00;3.00
65556;PMS3003;52200;53.490;14.376;2023-05-25T06:03:09;12.75;8.75;5.00
65556;PMS3003;52200;53.490;14.376;2023-05-25T06:05:34;13.00;6.00;2.25
65556;PMS3003;52200;53.490;14.376;2023-05-25T06:07:59;7.75;3.75;2.00
65556;PMS3003;52200;53.490;14.376;2023-05-25T06:10:25;11.00;7.00;3.50
65556;PMS3003;52200;53.490;14.376;2023-05-25T06:12:51;10.25;7.00;3.00
65556;PMS3003;52200;53.490;14.376;2023-05-25T06:15:16;12.40;8.20;3.00
65556;PMS3003;52200;53.490;14.376;2023-05-25T06:17:42;11.00;6.50;2.75
65556;PMS3003;52200;53.490;14.376;2023-05-25T06:20:08;8.75;5.25;2.25
65556;PMS3003;52200;53.490;14.376;2023-05-25T06:22:34;12.40;7.00;3.00
65556;PMS3003;52200;53.490;14.376;2023-05-25T06:24:59;10.60;6.00;3.00
65556;PMS3003;52200;53.490;14.376;2023-05-25T06:27:25;8.00;3.50;1.00
65556;PMS3003;52200;53.490;14.376;2023-05-25T06:29:50;10.00;6.00;3.00
65556;PMS3003;52200;53.490;14.376;2023-05-25T06:32:16;9.75;5.00;2.50
65556;PMS3003;52200;53.490;14.376;2023-05-25T06:34:41;12.00;6.75;3.50
65556;PMS3003;52200;53.490;14.376;2023-05-25T06:37:07;11.00;6.75;3.00
65556;PMS3003;52200;53.490;14.376;2023-05-25T06:39:32;10.00;5.00;3.75
65556;PMS3003;52200;53.490;14.376;2023-05-25T06:41:57;13.00;8.75;4.25
65556;PMS3003;52200;53.490;14.376;2023-05-25T06:44:23;12.75;7.00;3.75
65556;PMS3003;52200;53.490;14.376;2023-05-25T06:46:48;11.00;5.00;3.00
65556;PMS3003;52200;53.490;14.376;2023-05-25T06:49:14;9.75;6.75;3.00
65556;PMS3003;52200;53.490;14.376;2023-05-25T06:51:39;13.00;7.75;3.50
65556;PMS3003;52200;53.490;14.376;2023-05-25T06:54:05;10.25;6.25;3.75
65556;PMS3003;52200;53.490;14.376;2023-05-25T06:56:32;11.00;6.40;3.80
65556;PMS3003;52200;53.490;14.376;2023-05-25T06:58:58;13.75;8.25;3.75
65556;PMS3003;52200;53.490;14.376;2023-05-25T07:01:23;10.50;6.50;4.00
65556;PMS3003;52200;53.490;14.376;2023-05-25T07:03:48;13.75;9.00;4.50
65556;PMS3003;52200;53.490;14.376;2023-05-25T07:06:14;14.75;9.00;5.25
65556;PMS3003;52200;53.490;14.376;2023-05-25T07:08:41;11.00;7.20;3.60
65556;PMS3003;52200;53.490;14.376;2023-05-25T07:11:06;13.50;9.00;5.75
65556;PMS3003;52200;53.490;14.376;2023-05-25T07:13:34;11.00;5.80;3.60
65556;PMS3003;52200;53.490;14.376;2023-05-25T07:16:00;13.00;6.75;4.75
65556;PMS3003;52200;53.490;14.376;2023-05-25T07:18:25;11.75;6.50;5.00
65556;PMS3003;52200;53.490;14.376;2023-05-25T07:20:51;10.75;7.00;3.75
65556;PMS3003;52200;53.490;14.376;2023-05-25T07:23:17;14.20;8.40;4.60
65556;PMS3003;52200;53.490;14.376;2023-05-25T07:25:42;12.75;8.00;5.00
65556;PMS3003;52200;53.490;14.376;2023-05-25T07:28:08;12.75;7.50;3.50
65556;PMS3003;52200;53.490;14.376;2023-05-25T07:30:33;15.00;8.75;4.00
65556;PMS3003;52200;53.490;14.376;2023-05-25T07:32:59;13.75;10.00;5.50
65556;PMS3003;52200;53.490;14.376;2023-05-25T07:35:25;12.25;7.75;5.00
65556;PMS3003;52200;53.490;14.376;2023-05-25T07:37:57;13.50;8.00;3.50
65556;PMS3003;52200;53.490;14.376;2023-05-25T07:40:28;11.20;8.00;3.20
65556;PMS3003;52200;53.490;14.376;2023-05-25T07:42:53;13.50;7.00;4.75
65556;PMS3003;52200;53.490;14.376;2023-05-25T07:45:19;14.75;9.25;5.00
65556;PMS3003;52200;53.490;14.376;2023-05-25T07:47:45;14.60;8.60;4.60
65556;PMS3003;52200;53.490;14.376;2023-05-25T07:50:10;12.50;7.75;4.00
65556;PMS3003;52200;53.490;14.376;2023-05-25T07:52:37;12.20;7.60;4.00
65556;PMS3003;52200;53.490;14.376;2023-05-25T07:55:03;13.00;8.75;4.00
65556;PMS3003;52200;53.490;14.376;2023-05-25T07:57:30;16.00;9.60;4.80
65556;PMS3003;52200;53.490;14.376;2023-05-25T07:59:56;11.75;6.50;4.00
65556;PMS3003;52200;53.490;14.376;2023-05-25T08:02:21;15.25;10.50;4.25
65556;PMS3003;52200;53.490;14.376;2023-05-25T08:04:47;11.25;7.50;4.50
65556;PMS3003;52200;53.490;14.376;2023-05-25T08:07:12;14.00;7.50;3.25
65556;PMS3003;52200;53.490;14.376;2023-05-25T08:09:37;15.00;8.75;3.75
65556;PMS3003;52200;53.490;14.376;2023-05-25T08:12:03;12.25;9.25;5.75
65556;PMS3003;52200;53.490;14.376;2023-05-25T08:14:29;16.50;8.50;4.00
65556;PMS3003;52200;53.490;14.376;2023-05-25T08:16:54;13.00;8.75;4.00
65556;PMS3003;52200;53.490;14.376;2023-05-25T08:19:19;10.25;7.00;3.00
65556;PMS3003;52200;53.490;14.376;2023-05-25T08:21:45;12.25;8.00;4.00
65556;PMS3003;52200;53.490;14.376;2023-05-25T08:24:10;13.25;8.00;4.50
65556;PMS3003;52200;53.490;14.376;2023-05-25T08:26:36;13.50;8.75;4.50
65556;PMS3003;52200;53.490;14.376;2023-05-25T08:29:02;15.40;9.20;4.00
65556;PMS3003;52200;53.490;14.376;2023-05-25T08:31:29;14.80;8.80;4.20
65556;PMS3003;52200;53.490;14.376;2023-05-25T08:33:57;11.20;6.20;3.40
65556;PMS3003;52200;53.490;14.376;2023-05-25T08:36:24;13.80;8.80;4.60
65556;PMS3003;52200;53.490;14.376;2023-05-25T08:38:50;15.40;8.40;4.80
65556;PMS3003;52200;53.490;14.376;2023-05-25T08:41:16;10.25;7.25;4.25
65556;PMS3003;52200;53.490;14.376;2023-05-25T08:43:41;13.25;9.25;4.00
65556;PMS3003;52200;53.490;14.376;2023-05-25T08:46:07;12.75;8.00;4.00
65556;PMS3003;52200;53.490;14.376;2023-05-25T08:48:34;14.40;8.20;4.00
65556;PMS3003;52200;53.490;14.376;2023-05-25T08:51:03;12.40;8.00;5.00
65556;PMS3003;52200;53.490;14.376;2023-05-25T08:53:34;14.00;9.40;5.00
65556;PMS3003;52200;53.490;14.376;2023-05-25T08:56:06;12.00;6.60;4.00
65556;PMS3003;52200;53.490;14.376;2023-05-25T08:58:53;12.60;8.00;4.40
65556;PMS3003;52200;53.490;14.376;2023-05-25T09:01:27;14.80;9.80;5.20
65556;PMS3003;52200;53.490;14.376;2023-05-25T09:03:56;10.60;7.40;5.00
65556;PMS3003;52200;53.490;14.376;2023-05-25T09:06:24;12.60;9.00;4.80
65556;PMS3003;52200;53.490;14.376;2023-05-25T09:08:53;13.00;7.20;4.80
65556;PMS3003;52200;53.490;14.376;2023-05-25T09:11:19;15.00;10.20;4.00
65556;PMS3003;52200;53.490;14.376;2023-05-25T09:13:45;12.80;8.40;4.00
65556;PMS3003;52200;53.490;14.376;2023-05-25T09:16:11;11.40;7.00;3.00
65556;PMS3003;52200;53.490;14.376;2023-05-25T09:18:36;12.00;7.50;5.00
65556;PMS3003;52200;53.490;14.376;2023-05-25T09:21:02;11.75;7.50;4.25
65556;PMS3003;52200;53.490;14.376;2023-05-25T09:23:28;10.80;6.60;3.40
65556;PMS3003;52200;53.490;14.376;2023-05-25T09:25:54;13.20;7.40;4.00
65556;PMS3003;52200;53.490;14.376;2023-05-25T09:28:21;12.40;8.00;4.80
65556;PMS3003;52200;53.490;14.376;2023-05-25T09:30:47;13.50;9.00;4.00
65556;PMS3003;52200;53.490;14.376;2023-05-25T09:33:13;14.50;8.75;3.50
65556;PMS3003;52200;53.490;14.376;2023-05-25T09:35:42;14.80;9.60;5.00
65556;PMS3003;52200;53.490;14.376;2023-05-25T09:38:08;9.00;6.00;3.40
65556;PMS3003;52200;53.490;14.376;2023-05-25T09:40:33;12.75;8.50;5.00
65556;PMS3003;52200;53.490;14.376;2023-05-25T09:43:00;13.00;9.80;6.00
65556;PMS3003;52200;53.490;14.376;2023-05-25T09:45:27;15.40;9.00;4.60
65556;PMS3003;52200;53.490;14.376;2023-05-25T09:47:54;13.50;7.50;4.00
65556;PMS3003;52200;53.490;14.376;2023-05-25T09:50:20;14.20;9.20;5.00
65556;PMS3003;52200;53.490;14.376;2023-05-25T09:52:46;13.25;9.00;5.00
65556;PMS3003;52200;53.490;14.376;2023-05-25T09:55:11;12.60;8.60;5.00
65556;PMS3003;52200;53.490;14.376;2023-05-25T09:57:37;16.25;8.75;5.25
65556;PMS3003;52200;53.490;14.376;2023-05-25T10:00:03;14.00;9.75;6.50
65556;PMS3003;52200;53.490;14.376;2023-05-25T10:02:30;14.00;10.40;7.00
65556;PMS3003;52200;53.490;14.376;2023-05-25T10:04:55;16.75;12.50;6.00
65556;PMS3003;52200;53.490;14.376;2023-05-25T10:07:21;16.20;10.00;5.60
65556;PMS3003;52200;53.490;14.376;2023-05-25T10:09:47;12.00;8.50;5.00
65556;PMS3003;52200;53.490;14.376;2023-05-25T10:12:18;14.20;10.00;5.80
65556;PMS3003;52200;53.490;14.376;2023-05-25T10:14:44;15.00;10.60;6.00
65556;PMS3003;52200;53.490;14.376;2023-05-25T10:17:11;13.80;9.00;6.00
65556;PMS3003;52200;53.490;14.376;2023-05-25T10:19:49;14.40;10.60;5.20
65556;PMS3003;52200;53.490;14.376;2023-05-25T10:27:23;14.00;8.00;5.00
65556;PMS3003;52200;53.490;14.376;2023-05-25T10:29:54;11.60;8.40;4.40
65556;PMS3003;52200;53.490;14.376;2023-05-25T10:32:21;12.40;8.00;5.00
65556;PMS3003;52200;53.490;14.376;2023-05-25T10:34:47;12.00;8.75;5.00
65556;PMS3003;52200;53.490;14.376;2023-05-25T10:37:15;13.00;8.00;4.40
65556;PMS3003;52200;53.490;14.376;2023-05-25T10:39:42;12.60;7.80;4.60
65556;PMS3003;52200;53.490;14.376;2023-05-25T10:42:08;13.40;10.00;4.60
65556;PMS3003;52200;53.490;14.376;2023-05-25T10:44:35;12.00;8.00;4.40
65556;PMS3003;52200;53.490;14.376;2023-05-25T10:47:01;11.75;8.50;3.75
65556;PMS3003;52200;53.490;14.376;2023-05-25T10:49:30;10.20;6.00;4.20
65556;PMS3003;52200;53.490;14.376;2023-05-25T10:52:00;11.40;7.40;4.20
65556;PMS3003;52200;53.490;14.376;2023-05-25T10:54:29;13.00;7.00;3.20
65556;PMS3003;52200;53.490;14.376;2023-05-25T10:57:19;11.60;7.20;3.20
65556;PMS3003;52200;53.490;14.376;2023-05-25T10:59:48;12.40;7.80;5.00
65556;PMS3003;52200;53.490;14.376;2023-05-25T11:02:15;13.40;8.00;4.00
65556;PMS3003;52200;53.490;14.376;2023-05-25T11:04:41;9.80;6.00;3.80
65556;PMS3003;52200;53.490;14.376;2023-05-25T11:07:09;13.60;9.40;3.80
65556;PMS3003;52200;53.490;14.376;2023-05-25T11:09:40;11.00;7.80;4.60
65556;PMS3003;52200;53.490;14.376;2023-05-25T11:12:19;10.80;7.20;3.80
65556;PMS3003;52200;53.490;14.376;2023-05-25T11:15:31;12.20;6.20;3.00
65556;PMS3003;52200;53.490;14.376;2023-05-25T11:17:45;15.20;9.60;5.80
65556;PMS3003;52200;53.490;14.376;2023-05-25T11:20:25;8.80;5.40;3.20
65556;PMS3003;52200;53.490;14.376;2023-05-25T11:22:52;10.00;6.20;3.00
65556;PMS3003;52200;53.490;14.376;2023-05-25T11:28:01;12.60;9.00;4.00
65556;PMS3003;52200;53.490;14.376;2023-05-25T11:30:28;12.00;6.80;4.60
65556;PMS3003;52200;53.490;14.376;2023-05-25T11:32:53;9.00;5.00;3.50
65556;PMS3003;52200;53.490;14.376;2023-05-25T11:35:23;10.40;6.40;3.20
65556;PMS3003;52200;53.490;14.376;2023-05-25T11:37:50;9.80;5.40;3.00
65556;PMS3003;52200;53.490;14.376;2023-05-25T11:40:20;13.20;7.80;4.00
65556;PMS3003;52200;53.490;14.376;2023-05-25T11:42:46;9.40;5.60;3.40
65556;PMS3003;52200;53.490;14.376;2023-05-25T11:45:13;11.80;8.00;5.20
65556;PMS3003;52200;53.490;14.376;2023-05-25T11:47:40;11.50;8.25;4.75
65556;PMS3003;52200;53.490;14.376;2023-05-25T11:50:06;15.00;10.20;6.40
65556;PMS3003;52200;53.490;14.376;2023-05-25T11:52:31;13.75;9.25;5.00
65556;PMS3003;52200;53.490;14.376;2023-05-25T11:54:57;13.00;9.00;4.75
65556;PMS3003;52200;53.490;14.376;2023-05-25T11:57:23;13.20;8.40;4.40
65556;PMS3003;52200;53.490;14.376;2023-05-25T12:02:24;14.60;10.00;4.80
65556;PMS3003;52200;53.490;14.376;2023-05-25T12:04:53;10.60;7.00;3.40
65556;PMS3003;52200;53.490;14.376;2023-05-25T12:07:26;11.40;6.80;3.80
65556;PMS3003;52200;53.490;14.376;2023-05-25T12:10:15;10.80;7.00;4.00
65556;PMS3003;52200;53.490;14.376;2023-05-25T12:12:41;10.60;4.60;2.80
65556;PMS3003;52200;53.490;14.376;2023-05-25T12:15:08;13.00;8.00;5.00
65556;PMS3003;52200;53.490;14.376;2023-05-25T12:17:36;11.20;8.00;4.00
65556;PMS3003;52200;53.490;14.376;2023-05-25T12:20:05;13.00;9.20;5.00
65556;PMS3003;52200;53.490;14.376;2023-05-25T12:22:31;15.40;11.00;6.20
65556;PMS3003;52200;53.490;14.376;2023-05-25T12:24:57;12.00;9.00;5.80
65556;PMS3003;52200;53.490;14.376;2023-05-25T12:27:24;14.00;10.40;5.40
65556;PMS3003;52200;53.490;14.376;2023-05-25T12:29:50;12.50;8.50;4.25
65556;PMS3003;52200;53.490;14.376;2023-05-25T12:32:17;10.80;6.60;2.80
65556;PMS3003;52200;53.490;14.376;2023-05-25T12:34:42;13.00;8.00;5.00
65556;PMS3003;52200;53.490;14.376;2023-05-25T12:37:17;11.00;7.00;4.00
65556;PMS3003;52200;53.490;14.376;2023-05-25T12:39:44;13.20;6.00;3.20
65556;PMS3003;52200;53.490;14.376;2023-05-25T12:42:13;9.25;5.25;3.50
65556;PMS3003;52200;53.490;14.376;2023-05-25T12:44:41;11.80;8.00;4.20
65556;PMS3003;52200;53.490;14.376;2023-05-25T12:49:34;13.40;9.80;5.40
65556;PMS3003;52200;53.490;14.376;2023-05-25T12:52:00;13.25;8.00;5.00
65556;PMS3003;52200;53.490;14.376;2023-05-25T12:54:34;14.60;10.00;4.80
65556;PMS3003;52200;53.490;14.376;2023-05-25T12:57:02;16.00;9.00;5.00
65556;PMS3003;52200;53.490;14.376;2023-05-25T12:59:30;10.80;7.00;4.80
65556;PMS3003;52200;53.490;14.376;2023-05-25T13:01:57;14.60;9.40;5.60
65556;PMS3003;52200;53.490;14.376;2023-05-25T13:04:23;12.40;9.00;5.20
65556;PMS3003;52200;53.490;14.376;2023-05-25T13:06:50;14.50;8.75;4.75
65556;PMS3003;52200;53.490;14.376;2023-05-25T13:09:16;13.60;9.80;5.00
65556;PMS3003;52200;53.490;14.376;2023-05-25T13:11:42;11.75;8.00;5.75
65556;PMS3003;52200;53.490;14.376;2023-05-25T13:14:07;12.75;8.50;5.00
65556;PMS3003;52200;53.490;14.376;2023-05-25T13:16:33;11.25;7.50;4.00
65556;PMS3003;52200;53.490;14.376;2023-05-25T13:18:59;12.75;8.25;4.00
65556;PMS3003;52200;53.490;14.376;2023-05-25T13:21:25;11.80;8.40;4.20
65556;PMS3003;52200;53.490;14.376;2023-05-25T13:23:51;11.00;8.00;4.00
65556;PMS3003;52200;53.490;14.376;2023-05-25T13:26:17;18.50;9.25;4.00
65556;PMS3003;52200;53.490;14.376;2023-05-25T13:28:43;11.80;7.60;4.40
65556;PMS3003;52200;53.490;14.376;2023-05-25T13:31:09;10.50;6.75;3.50
65556;PMS3003;52200;53.490;14.376;2023-05-25T13:33:34;12.50;7.00;4.50
65556;PMS3003;52200;53.490;14.376;2023-05-25T13:36:00;11.00;6.75;4.00
65556;PMS3003;52200;53.490;14.376;2023-05-25T13:38:32;13.80;6.80;3.80
65556;PMS3003;52200;53.490;14.376;2023-05-25T13:40:58;11.00;5.40;3.20
65556;PMS3003;52200;53.490;14.376;2023-05-25T13:43:24;10.80;5.80;2.40
65556;PMS3003;52200;53.490;14.376;2023-05-25T13:45:49;12.00;6.80;4.00
65556;PMS3003;52200;53.490;14.376;2023-05-25T13:48:15;11.75;8.00;4.75
65556;PMS3003;52200;53.490;14.376;2023-05-25T13:50:41;12.00;7.40;3.40
65556;PMS3003;52200;53.490;14.376;2023-05-25T13:53:08;15.00;7.40;4.20
65556;PMS3003;52200;53.490;14.376;2023-05-25T13:55:34;11.75;7.50;4.00
65556;PMS3003;52200;53.490;14.376;2023-05-25T13:57:59;13.25;7.50;3.00
65556;PMS3003;52200;53.490;14.376;2023-05-25T14:00:25;11.75;8.00;4.00
65556;PMS3003;52200;53.490;14.376;2023-05-25T14:02:51;13.60;8.40;4.40
65556;PMS3003;52200;53.490;14.376;2023-05-25T14:05:17;17.50;8.75;5.75
65556;PMS3003;52200;53.490;14.376;2023-05-25T14:07:43;12.00;7.60;3.40
65556;PMS3003;52200;53.490;14.376;2023-05-25T14:10:09;13.00;7.00;3.25
65556;PMS3003;52200;53.490;14.376;2023-05-25T14:12:35;11.75;6.25;5.00